createdAt,value
2022-08-20T00:00:57.770Z,99590.49
2022-08-20T00:03:31.221Z,99584.76
2022-08-20T00:06:14.779Z,99591.82
2022-08-20T00:08:46.695Z,99593.15
2022-08-20T00:11:22.027Z,99590.49
2022-08-20T00:13:57.752Z,99592.28
2022-08-20T00:16:32.980Z,99593.15
2022-08-20T00:19:06.996Z,99588.73
2022-08-20T00:21:38.946Z,99589.61
2022-08-20T00:24:10.601Z,99586.95
2022-08-20T00:26:46.797Z,99578.52
2022-08-20T00:29:16.774Z,99580.30
2022-08-20T00:31:50.707Z,99578.55
2022-08-20T00:34:22.559Z,99580.75
2022-08-20T00:36:54.456Z,99576.77
2022-08-20T00:39:26.222Z,99576.30
2022-08-20T00:41:57.901Z,99582.53
2022-08-20T00:44:29.942Z,99589.59
2022-08-20T00:47:01.733Z,99585.61
2022-08-20T00:49:34.136Z,99585.61
2022-08-20T00:52:14.506Z,99585.19
2022-08-20T00:54:49.201Z,99578.97
2022-08-20T00:57:58.975Z,99583.86
2022-08-20T01:00:12.414Z,99578.97
2022-08-20T01:02:46.670Z,99591.38
2022-08-20T01:05:18.721Z,99597.15
2022-08-20T01:07:53.780Z,99610.86
2022-08-20T01:10:29.853Z,99612.64
2022-08-20T01:13:03.373Z,99619.73
2022-08-20T01:15:38.970Z,99617.95
2022-08-20T01:18:11.304Z,99616.17
2022-08-20T01:20:46.076Z,99618.41
2022-08-20T01:23:32.793Z,99619.72
2022-08-20T01:26:12.825Z,99632.55
2022-08-20T01:28:57.206Z,99633.41
2022-08-20T01:31:34.075Z,99632.98
2022-08-20T01:34:08.583Z,99634.33
2022-08-20T01:36:46.595Z,99625.91
2022-08-20T01:39:21.723Z,99625.91
2022-08-20T01:42:08.779Z,99627.23
2022-08-20T01:44:42.624Z,99629.44
2022-08-20T01:47:17.908Z,99622.80
2022-08-20T01:49:52.556Z,99617.49
2022-08-20T01:52:27.734Z,99619.28
2022-08-20T01:55:00.010Z,99619.73
2022-08-20T01:57:32.075Z,99628.58
2022-08-20T02:00:09.064Z,99626.80
2022-08-20T02:02:42.651Z,99625.47
2022-08-20T02:05:14.970Z,99625.46
2022-08-20T02:07:46.997Z,99629.89
2022-08-20T02:10:19.996Z,99629.00
2022-08-20T02:12:51.754Z,99631.66
2022-08-20T02:15:34.715Z,99633.41
2022-08-20T02:17:58.782Z,99641.38
2022-08-20T02:20:32.031Z,99632.09
2022-08-20T02:23:04.767Z,99636.53
2022-08-20T02:25:38.059Z,99636.08
2022-08-20T02:28:12.848Z,99644.05
2022-08-20T02:30:47.679Z,99637.85
2022-08-20T02:33:22.361Z,99636.98
2022-08-20T02:35:57.131Z,99638.75
2022-08-20T02:38:28.864Z,99637.44
2022-08-20T02:41:00.608Z,99642.75
2022-08-20T02:43:32.454Z,99644.98
2022-08-20T02:46:04.530Z,99653.83
2022-08-20T02:48:36.248Z,99656.94
2022-08-20T02:51:08.501Z,99661.80
2022-08-20T02:53:42.194Z,99657.36
2022-08-20T02:56:14.293Z,99660.47
2022-08-20T02:58:46.213Z,99665.80
2022-08-20T03:01:18.528Z,99664.47
2022-08-20T03:03:50.467Z,99661.82
2022-08-20T03:06:22.528Z,99663.16
2022-08-20T03:08:55.217Z,99669.81
2022-08-20T03:11:27.136Z,99663.17
2022-08-20T03:13:59.857Z,99662.72
2022-08-20T03:16:31.857Z,99664.93
2022-08-20T03:19:04.237Z,99673.35
2022-08-20T03:21:36.108Z,99678.20
2022-08-20T03:24:07.836Z,99675.55
2022-08-20T03:26:39.595Z,99672.45
2022-08-20T03:29:11.300Z,99668.45
2022-08-20T03:31:43.086Z,99668.00
2022-08-20T03:34:14.937Z,99676.44
2022-08-20T03:36:47.150Z,99674.20
2022-08-20T03:39:18.866Z,99675.13
2022-08-20T03:41:50.724Z,99680.46
2022-08-20T03:44:22.628Z,99688.00
2022-08-20T03:46:54.637Z,99681.37
2022-08-20T03:49:26.833Z,99680.05
2022-08-20T03:51:58.742Z,99692.48
2022-08-20T03:54:32.040Z,99686.71
2022-08-20T03:57:12.866Z,99692.91
2022-08-20T03:59:38.277Z,99701.77
2022-08-20T04:02:11.345Z,99683.98
2022-08-20T04:04:43.097Z,99693.75
2022-08-20T04:07:19.059Z,99690.18
2022-08-20T04:09:50.787Z,99685.72
2022-08-20T04:12:24.384Z,99679.00
2022-08-20T04:14:56.197Z,99677.62
2022-08-20T04:17:28.654Z,99673.61
2022-08-20T04:20:00.387Z,99682.94
2022-08-20T04:22:32.635Z,99683.85
2022-08-20T04:25:06.183Z,99678.06
2022-08-20T04:27:40.542Z,99679.81
2022-08-20T04:30:14.363Z,99683.36
2022-08-20T04:32:46.139Z,99678.92
2022-08-20T04:35:18.677Z,99685.12
2022-08-20T04:37:50.477Z,99678.48
2022-08-20T04:40:39.916Z,99681.61
2022-08-20T04:43:12.437Z,99688.28
2022-08-20T04:45:45.057Z,99691.88
2022-08-20T04:48:16.838Z,99695.89
2022-08-20T04:50:48.627Z,99696.32
2022-08-20T04:53:25.773Z,99694.55
2022-08-20T04:55:58.170Z,99692.77
2022-08-20T04:58:33.874Z,99688.75
2022-08-20T05:01:10.709Z,99688.73
2022-08-20T05:03:43.414Z,99690.91
2022-08-20T05:06:17.055Z,99700.66
2022-08-20T05:08:50.869Z,99700.20
2022-08-20T05:11:35.375Z,99703.26
2022-08-20T05:13:56.991Z,99698.82
2022-08-20T05:16:28.803Z,99696.55
2022-08-20T05:19:00.457Z,99695.23
2022-08-20T05:21:32.707Z,99684.99
2022-08-20T05:24:05.102Z,99685.38
2022-08-20T05:26:37.755Z,99679.16
2022-08-20T05:29:09.683Z,99669.36
2022-08-20T05:31:42.430Z,99667.14
2022-08-20T05:34:14.306Z,99659.56
2022-08-20T05:36:49.317Z,99658.60
2022-08-20T05:39:22.959Z,99672.34
2022-08-20T05:41:54.626Z,99662.94
2022-08-20T05:44:26.433Z,99660.66
2022-08-20T05:46:58.276Z,99664.60
2022-08-20T05:49:30.757Z,99668.55
2022-08-20T05:52:02.836Z,99668.95
2022-08-20T05:54:36.795Z,99661.78
2022-08-20T05:57:08.537Z,99662.12
2022-08-20T05:59:41.011Z,99667.41
2022-08-20T06:02:30.590Z,99659.34
2022-08-20T06:05:02.374Z,99661.93
2022-08-20T06:07:34.152Z,99667.16
2022-08-20T06:10:07.990Z,99670.63
2022-08-20T06:12:40.629Z,99674.51
2022-08-20T06:15:12.857Z,99672.63
2022-08-20T06:17:45.591Z,99672.06
2022-08-20T06:20:19.463Z,99664.83
2022-08-20T06:22:51.395Z,99656.31
2022-08-20T06:25:23.224Z,99656.65
2022-08-20T06:27:55.024Z,99656.09
2022-08-20T06:30:26.814Z,99661.36
2022-08-20T06:32:58.666Z,99663.10
2022-08-20T06:35:30.456Z,99658.63
2022-08-20T06:38:02.357Z,99656.38
2022-08-20T06:40:34.591Z,99655.91
2022-08-20T06:43:08.138Z,99657.18
2022-08-20T06:45:40.733Z,99661.11
2022-08-20T06:48:15.163Z,99656.11
2022-08-20T06:50:48.267Z,99662.70
2022-08-20T06:53:21.381Z,99676.92
2022-08-20T06:55:56.441Z,99668.84
2022-08-20T06:58:36.575Z,99664.78
2022-08-20T07:01:05.180Z,99666.92
2022-08-20T07:03:38.583Z,99670.30
2022-08-20T07:06:11.387Z,99667.91
2022-08-20T07:08:43.718Z,99667.75
2022-08-20T07:11:17.421Z,99665.87
2022-08-20T07:13:49.934Z,99671.10
2022-08-20T07:16:22.057Z,99677.17
2022-08-20T07:18:53.960Z,99663.94
2022-08-20T07:21:26.173Z,99664.26
2022-08-20T07:23:57.996Z,99660.06
2022-08-20T07:26:29.896Z,99657.20
2022-08-20T07:29:01.821Z,99660.60
2022-08-20T07:31:51.523Z,99655.05
2022-08-20T07:34:23.511Z,99656.23
2022-08-20T07:36:55.614Z,99644.01
2022-08-20T07:39:29.918Z,99647.86
2022-08-20T07:42:04.254Z,99640.56
2022-08-20T07:44:37.027Z,99640.99
2022-08-20T07:47:08.950Z,99633.85
2022-08-20T07:49:41.467Z,99632.95
2022-08-20T07:52:14.239Z,99632.98
2022-08-20T07:54:46.102Z,99632.04
2022-08-20T07:57:18.987Z,99628.39
2022-08-20T07:59:50.709Z,99635.53
2022-08-20T08:02:22.518Z,99631.03
2022-08-20T08:04:55.084Z,99638.17
2022-08-20T08:07:27.061Z,99632.73
2022-08-20T08:09:59.042Z,99639.84
2022-08-20T08:12:35.147Z,99643.84
2022-08-20T08:15:08.544Z,99665.63
2022-08-20T08:17:41.125Z,99659.66
2022-08-20T08:20:13.436Z,99668.03
2022-08-20T08:22:46.152Z,99668.80
2022-08-20T08:25:18.424Z,99666.98
2022-08-20T08:27:50.380Z,99667.39
2022-08-20T08:30:22.598Z,99664.23
2022-08-20T08:33:12.076Z,99661.51
2022-08-20T08:35:45.439Z,99662.38
2022-08-20T08:38:17.224Z,99660.06
2022-08-20T08:40:52.209Z,99664.05
2022-08-20T08:43:31.190Z,99660.82
2022-08-20T08:46:03.275Z,99659.48
2022-08-20T08:48:42.482Z,99659.44
2022-08-20T08:51:16.456Z,99650.87
2022-08-20T08:53:53.013Z,99652.22
2022-08-20T08:56:31.708Z,99650.91
2022-08-20T08:59:10.935Z,99654.91
2022-08-20T09:01:53.780Z,99662.84
2022-08-20T09:04:22.132Z,99661.43
2022-08-20T09:06:55.140Z,99673.33
2022-08-20T09:09:32.697Z,99677.31
2022-08-20T09:12:07.979Z,99675.53
2022-08-20T09:14:39.937Z,99677.83
2022-08-20T09:17:11.693Z,99674.27
2022-08-20T09:19:43.536Z,99681.85
2022-08-20T09:22:17.767Z,99695.16
2022-08-20T09:24:50.363Z,99704.92
2022-08-20T09:27:22.238Z,99711.56
2022-08-20T09:29:54.363Z,99717.80
2022-08-20T09:32:26.318Z,99707.97
2022-08-20T09:34:59.301Z,99711.71
2022-08-20T09:37:36.702Z,99716.39
2022-08-20T09:40:08.333Z,99712.08
2022-08-20T09:42:41.931Z,99714.84
2022-08-20T09:45:14.619Z,99722.02
2022-08-20T09:47:54.964Z,99723.87
2022-08-20T09:50:20.758Z,99717.70
2022-08-20T09:52:54.691Z,99703.91
2022-08-20T09:55:41.289Z,99715.08
2022-08-20T09:58:34.325Z,99719.11
2022-08-20T10:01:14.002Z,99723.56
2022-08-20T10:03:44.283Z,99735.98
2022-08-20T10:06:17.975Z,99744.40
2022-08-20T10:08:50.515Z,99745.70
2022-08-20T10:11:22.558Z,99742.25
2022-08-20T10:13:54.446Z,99738.00
2022-08-20T10:16:26.314Z,99738.20
2022-08-20T10:18:58.252Z,99738.73
2022-08-20T10:21:35.335Z,99738.34
2022-08-20T10:24:05.419Z,99732.33
2022-08-20T10:26:39.613Z,99742.78
2022-08-20T10:29:11.401Z,99751.77
2022-08-20T10:31:43.376Z,99753.95
2022-08-20T10:34:15.009Z,99760.75
2022-08-20T10:36:47.695Z,99753.67
2022-08-20T10:39:19.480Z,99755.48
2022-08-20T10:41:51.363Z,99764.34
2022-08-20T10:44:23.208Z,99760.78
2022-08-20T10:46:57.084Z,99758.13
2022-08-20T10:49:28.428Z,99755.78
2022-08-20T10:52:00.262Z,99748.94
2022-08-20T10:54:32.200Z,99747.89
2022-08-20T10:57:05.093Z,99759.64
2022-08-20T10:59:42.856Z,99756.72
2022-08-20T11:02:15.485Z,99745.26
2022-08-20T11:04:47.782Z,99736.87
2022-08-20T11:07:52.815Z,99731.15
2022-08-20T11:10:01.861Z,99729.84
2022-08-20T11:12:34.065Z,99718.27
2022-08-20T11:15:09.372Z,99712.52
2022-08-20T11:17:42.535Z,99715.75
2022-08-20T11:20:16.489Z,99705.98
2022-08-20T11:22:48.410Z,99711.73
2022-08-20T11:25:20.919Z,99711.63
2022-08-20T11:27:54.030Z,99719.63
2022-08-20T11:30:29.089Z,99711.19
2022-08-20T11:33:01.666Z,99705.85
2022-08-20T11:35:48.314Z,99705.94
2022-08-20T11:38:08.752Z,99706.81
2022-08-20T11:40:41.075Z,99706.34
2022-08-20T11:43:15.487Z,99708.64
2022-08-20T11:45:49.410Z,99707.73
2022-08-20T11:48:21.426Z,99715.28
2022-08-20T11:50:53.380Z,99706.24
2022-08-20T11:53:25.683Z,99710.22
2022-08-20T11:55:57.614Z,99723.01
2022-08-20T11:58:31.149Z,99720.25
2022-08-20T12:01:02.928Z,99725.71
2022-08-20T12:03:35.767Z,99718.34
2022-08-20T12:06:08.107Z,99731.48
2022-08-20T12:08:41.163Z,99731.96
2022-08-20T12:11:13.373Z,99721.64
2022-08-20T12:13:48.815Z,99726.35
2022-08-20T12:16:20.259Z,99711.97
2022-08-20T12:18:52.639Z,99717.22
2022-08-20T12:21:24.546Z,99716.67
2022-08-20T12:23:56.442Z,99725.06
2022-08-20T12:26:28.764Z,99717.43
2022-08-20T12:29:00.715Z,99731.23
2022-08-20T12:31:32.946Z,99721.53
2022-08-20T12:34:04.681Z,99723.83
2022-08-20T12:36:36.595Z,99725.69
2022-08-20T12:39:09.550Z,99725.28
2022-08-20T12:41:41.388Z,99733.75
2022-08-20T12:44:14.453Z,99726.16
2022-08-20T12:46:46.270Z,99723.01
2022-08-20T12:49:18.075Z,99732.36
2022-08-20T12:51:50.080Z,99711.89
2022-08-20T12:54:21.973Z,99712.30
2022-08-20T12:56:53.847Z,99703.83
2022-08-20T12:59:26.421Z,99705.98
2022-08-20T13:01:58.224Z,99708.98
2022-08-20T13:04:32.291Z,99696.44
2022-08-20T13:07:04.785Z,99696.84
2022-08-20T13:09:38.421Z,99698.19
2022-08-20T13:12:14.479Z,99703.59
2022-08-20T13:14:46.951Z,99696.47
2022-08-20T13:17:19.849Z,99701.30
2022-08-20T13:19:53.252Z,99698.63
2022-08-20T13:22:24.917Z,99683.86
2022-08-20T13:24:56.623Z,99683.33
2022-08-20T13:27:28.763Z,99676.20
2022-08-20T13:30:00.599Z,99691.25
2022-08-20T13:32:32.744Z,99698.36
2022-08-20T13:35:05.994Z,99701.10
2022-08-20T13:37:38.256Z,99703.00
2022-08-20T13:40:11.073Z,99706.66
2022-08-20T13:42:43.183Z,99711.17
2022-08-20T13:45:15.067Z,99716.91
2022-08-20T13:47:47.314Z,99716.80
2022-08-20T13:50:20.985Z,99709.72
2022-08-20T13:52:53.073Z,99711.12
2022-08-20T13:55:26.848Z,99702.17
2022-08-20T13:57:59.690Z,99690.03
2022-08-20T14:00:33.232Z,99693.88
2022-08-20T14:03:06.379Z,99695.01
2022-08-20T14:05:40.353Z,99694.89
2022-08-20T14:08:22.864Z,99711.78
2022-08-20T14:10:55.109Z,99692.20
2022-08-20T14:13:27.857Z,99697.22
2022-08-20T14:15:59.667Z,99689.83
2022-08-20T14:18:32.227Z,99694.55
2022-08-20T14:21:03.945Z,99688.45
2022-08-20T14:23:36.960Z,99691.27
2022-08-20T14:26:09.000Z,99682.04
2022-08-20T14:28:40.839Z,99677.26
2022-08-20T14:31:12.752Z,99676.38
2022-08-20T14:33:44.904Z,99683.56
2022-08-20T14:36:16.731Z,99684.05
2022-08-20T14:38:48.487Z,99676.91
2022-08-20T14:41:20.436Z,99679.56
2022-08-20T14:43:52.257Z,99687.08
2022-08-20T14:46:24.056Z,99674.58
2022-08-20T14:48:55.792Z,99676.77
2022-08-20T14:51:27.865Z,99675.39
2022-08-20T14:53:59.664Z,99670.53
2022-08-20T14:56:31.617Z,99674.52
2022-08-20T14:59:03.550Z,99672.69
2022-08-20T15:01:35.472Z,99671.30
2022-08-20T15:04:07.234Z,99672.20
2022-08-20T15:06:39.836Z,99670.02
2022-08-20T15:09:11.660Z,99665.61
2022-08-20T15:11:43.584Z,99665.23
2022-08-20T15:14:18.426Z,99660.83
2022-08-20T15:16:49.424Z,99658.69
2022-08-20T15:19:21.845Z,99653.41
2022-08-20T15:21:53.775Z,99650.37
2022-08-20T15:24:25.995Z,99647.84
2022-08-20T15:26:57.972Z,99650.59
2022-08-20T15:29:30.294Z,99656.87
2022-08-20T15:32:02.437Z,99664.08
2022-08-20T15:34:34.393Z,99658.31
2022-08-20T15:37:18.467Z,99656.60
2022-08-20T15:39:51.348Z,99665.14
2022-08-20T15:42:23.997Z,99661.69
2022-08-20T15:44:56.060Z,99657.33
2022-08-20T15:47:37.223Z,99663.20
2022-08-20T15:50:14.034Z,99662.86
2022-08-20T15:52:46.798Z,99665.61
2022-08-20T15:55:19.324Z,99662.55
2022-08-20T15:58:12.797Z,99667.09
2022-08-20T16:00:57.099Z,99670.73
2022-08-20T16:03:53.252Z,99673.92
2022-08-20T16:06:26.711Z,99674.95
2022-08-20T16:09:21.506Z,99665.67
2022-08-20T16:12:02.077Z,99664.83
2022-08-20T16:14:42.865Z,99670.69
2022-08-20T16:17:23.304Z,99677.45
2022-08-20T16:20:01.911Z,99684.19
2022-08-20T16:22:33.945Z,99680.25
2022-08-20T16:25:06.090Z,99684.80
2022-08-20T16:27:50.863Z,99684.44
2022-08-20T16:30:32.183Z,99689.83
2022-08-20T16:33:13.043Z,99685.44
2022-08-20T16:35:51.357Z,99691.31
2022-08-20T16:38:50.203Z,99687.38
2022-08-20T16:41:35.249Z,99690.98
2022-08-20T16:44:41.111Z,99698.60
2022-08-20T16:47:22.146Z,99704.86
2022-08-20T16:50:02.831Z,99707.14
2022-08-20T16:52:35.308Z,99715.59
2022-08-20T16:55:07.289Z,99720.52
2022-08-20T16:57:39.206Z,99725.44
2022-08-20T17:00:18.775Z,99724.16
2022-08-20T17:03:05.637Z,99722.85
2022-08-20T17:05:46.199Z,99722.02
2022-08-20T17:08:34.981Z,99730.50
2022-08-20T17:11:13.473Z,99731.87
2022-08-20T17:13:48.067Z,99733.24
2022-08-20T17:16:24.172Z,99737.27
2022-08-20T17:18:56.036Z,99737.73
2022-08-20T17:21:32.187Z,99731.97
2022-08-20T17:24:06.649Z,99738.67
2022-08-20T17:26:47.216Z,99740.02
2022-08-20T17:29:21.611Z,99724.52
2022-08-20T17:31:55.933Z,99721.89
2022-08-20T17:34:31.616Z,99716.55
2022-08-20T17:37:11.976Z,99713.89
2022-08-20T17:39:49.218Z,99721.02
2022-08-20T17:42:26.667Z,99719.25
2022-08-20T17:45:16.623Z,99723.30
2022-08-20T17:47:48.275Z,99721.52
2022-08-20T17:50:28.263Z,99726.39
2022-08-20T17:53:12.333Z,99727.74
2022-08-20T17:55:45.139Z,99727.34
2022-08-20T17:58:19.141Z,99725.10
2022-08-20T18:00:51.141Z,99726.03
2022-08-20T18:03:25.067Z,99719.39
2022-08-20T18:06:05.697Z,99720.73
2022-08-20T18:08:50.167Z,99705.64
2022-08-20T18:11:34.483Z,99709.22
2022-08-20T18:14:26.775Z,99710.12
2022-08-20T18:17:02.755Z,99710.59
2022-08-20T18:20:12.411Z,99710.14
2022-08-20T18:22:51.251Z,99707.95
2022-08-20T18:25:34.917Z,99702.63
2022-08-20T18:28:09.836Z,99699.52
2022-08-20T18:30:52.215Z,99695.95
2022-08-20T18:33:30.454Z,99691.55
2022-08-20T18:36:13.884Z,99688.44
2022-08-20T18:39:04.221Z,99690.23
2022-08-20T18:41:38.721Z,99685.78
2022-08-20T18:44:13.679Z,99696.02
2022-08-20T18:46:56.583Z,99694.23
2022-08-20T18:49:37.994Z,99701.77
2022-08-20T18:52:13.127Z,99697.77
2022-08-20T18:54:53.044Z,99696.02
2022-08-20T18:57:40.842Z,99691.58
2022-08-20T19:00:17.542Z,99693.82
2022-08-20T19:02:56.802Z,99687.59
2022-08-20T19:05:31.902Z,99682.72
2022-08-20T19:08:05.152Z,99678.27
2022-08-20T19:10:49.451Z,99679.64
2022-08-20T19:13:46.424Z,99686.70
2022-08-20T19:16:24.461Z,99683.17
2022-08-20T19:18:56.664Z,99677.84
2022-08-20T19:21:34.821Z,99674.73
2022-08-20T19:24:07.847Z,99676.06
2022-08-20T19:26:48.310Z,99679.18
2022-08-20T19:29:22.589Z,99677.84
2022-08-20T19:31:59.153Z,99680.05
2022-08-20T19:34:32.283Z,99681.83
2022-08-20T19:37:27.741Z,99687.15
2022-08-20T19:39:46.728Z,99692.88
2022-08-20T19:42:27.364Z,99688.44
2022-08-20T19:45:10.787Z,99689.76
2022-08-20T19:48:15.982Z,99697.31
2022-08-20T19:50:54.734Z,99693.30
2022-08-20T19:53:30.423Z,99693.76
2022-08-20T19:56:05.472Z,99696.41
2022-08-20T19:58:38.534Z,99687.53
2022-08-20T20:01:22.237Z,99690.64
2022-08-20T20:04:03.361Z,99688.86
2022-08-20T20:06:41.380Z,99691.97
2022-08-20T20:09:22.386Z,99686.64
2022-08-20T20:11:56.703Z,99683.98
2022-08-20T20:14:31.246Z,99679.98
2022-08-20T20:17:07.595Z,99681.30
2022-08-20T20:20:00.157Z,99681.28
2022-08-20T20:22:36.042Z,99679.52
2022-08-20T20:25:13.778Z,99676.39
2022-08-20T20:27:54.378Z,99682.16
2022-08-20T20:30:29.415Z,99670.19
2022-08-20T20:33:04.361Z,99673.72
2022-08-20T20:35:37.369Z,99672.86
2022-08-20T20:38:19.663Z,99667.55
2022-08-20T20:40:55.022Z,99666.22
2022-08-20T20:43:29.778Z,99672.84
2022-08-20T20:46:10.741Z,99672.38
2022-08-20T20:48:48.691Z,99670.63
2022-08-20T20:51:29.519Z,99660.86
2022-08-20T20:54:03.983Z,99658.65
2022-08-20T20:56:41.248Z,99658.64
2022-08-20T20:59:13.163Z,99655.06
2022-08-20T21:01:48.438Z,99654.64
2022-08-20T21:04:23.261Z,99649.32
2022-08-20T21:06:56.630Z,99655.06
2022-08-20T21:09:28.584Z,99651.09
2022-08-20T21:12:01.077Z,99651.54
2022-08-20T21:14:33.041Z,99655.08
2022-08-20T21:17:07.153Z,99659.06
2022-08-20T21:19:41.107Z,99659.50
2022-08-20T21:22:12.790Z,99655.05
2022-08-20T21:24:45.910Z,99655.04
2022-08-20T21:27:19.321Z,99657.67
2022-08-20T21:29:51.272Z,99660.72
2022-08-20T21:32:24.304Z,99666.02
2022-08-20T21:34:56.161Z,99661.61
2022-08-20T21:37:28.475Z,99668.23
2022-08-20T21:40:00.399Z,99669.55
2022-08-20T21:42:32.820Z,99672.20
2022-08-20T21:45:08.671Z,99673.07
2022-08-20T21:47:41.350Z,99669.09
2022-08-20T21:50:15.048Z,99665.55
2022-08-20T21:52:59.322Z,99669.06
2022-08-20T21:55:23.070Z,99667.30
2022-08-20T21:57:54.859Z,99664.61
2022-08-20T22:00:46.759Z,99659.25
2022-08-20T22:03:20.079Z,99655.22
2022-08-20T22:05:53.023Z,99645.03
2022-08-20T22:08:26.629Z,99652.97
2022-08-20T22:10:59.754Z,99652.06
2022-08-20T22:13:33.327Z,99649.40
2022-08-20T22:16:08.687Z,99649.83
2022-08-20T22:18:42.456Z,99652.04
2022-08-20T22:21:17.355Z,99650.72
2022-08-20T22:23:49.426Z,99642.77
2022-08-20T22:26:21.660Z,99644.94
2022-08-20T22:28:53.404Z,99641.37
2022-08-20T22:31:30.414Z,99640.00
2022-08-20T22:34:02.202Z,99638.17
2022-08-20T22:36:34.652Z,99637.69
2022-08-20T22:39:07.501Z,99639.42
2022-08-20T22:41:39.958Z,99646.48
2022-08-20T22:44:11.760Z,99645.14
2022-08-20T22:46:47.604Z,99648.66
2022-08-20T22:49:19.593Z,99644.26
2022-08-20T22:51:52.813Z,99646.02
2022-08-20T22:54:25.461Z,99643.40
2022-08-20T22:56:57.313Z,99630.16
2022-08-20T22:59:29.432Z,99634.59
2022-08-20T23:02:08.367Z,99642.55
2022-08-20T23:04:38.522Z,99634.59
2022-08-20T23:07:11.611Z,99626.63
2022-08-20T23:09:45.142Z,99629.72
2022-08-20T23:12:17.240Z,99637.20
2022-08-20T23:14:49.392Z,99634.05
2022-08-20T23:17:21.360Z,99636.69
2022-08-20T23:19:53.216Z,99636.23
2022-08-20T23:22:24.932Z,99641.55
2022-08-20T23:25:00.401Z,99647.29
2022-08-20T23:27:30.084Z,99647.29
2022-08-20T23:30:01.858Z,99648.63
2022-08-20T23:32:33.911Z,99647.80
2022-08-20T23:35:06.495Z,99654.89
2022-08-20T23:37:41.375Z,99649.11
2022-08-20T23:40:14.361Z,99659.23
2022-08-20T23:42:46.195Z,99657.45
2022-08-20T23:45:19.692Z,99657.89
2022-08-20T23:47:51.656Z,99664.05
2022-08-20T23:50:26.922Z,99657.84
2022-08-20T23:52:59.413Z,99657.36
2022-08-20T23:55:31.621Z,99651.58
2022-08-20T23:58:03.644Z,99646.73
